sensor_id;sensor_type;location;lat;lon;timestamp;P1;durP1;ratioP1;P2;durP2;ratioP2
78322;SDS011;67583;50.616;-3.404;2023-03-23T00:02:14;25.80;;;5.35;;
78322;SDS011;67583;50.616;-3.404;2023-03-23T00:04:39;34.97;;;5.63;;
78322;SDS011;67583;50.616;-3.404;2023-03-23T00:07:07;33.40;;;7.68;;
78322;SDS011;67583;50.616;-3.404;2023-03-23T00:09:33;28.52;;;4.95;;
78322;SDS011;67583;50.616;-3.404;2023-03-23T00:11:59;40.95;;;5.40;;
78322;SDS011;67583;50.616;-3.404;2023-03-23T00:14:31;16.92;;;5.45;;
78322;SDS011;67583;50.616;-3.404;2023-03-23T00:17:06;20.17;;;3.70;;
78322;SDS011;67583;50.616;-3.404;2023-03-23T00:19:36;25.75;;;4.22;;
78322;SDS011;67583;50.616;-3.404;2023-03-23T00:22:10;20.25;;;4.28;;
78322;SDS011;67583;50.616;-3.404;2023-03-23T00:24:37;26.02;;;4.50;;
78322;SDS011;67583;50.616;-3.404;2023-03-23T00:27:02;18.50;;;3.67;;
78322;SDS011;67583;50.616;-3.404;2023-03-23T00:29:28;20.42;;;4.18;;
78322;SDS011;67583;50.616;-3.404;2023-03-23T00:31:53;16.20;;;3.35;;
78322;SDS011;67583;50.616;-3.404;2023-03-23T00:34:19;22.95;;;4.68;;
78322;SDS011;67583;50.616;-3.404;2023-03-23T00:36:46;17.58;;;3.92;;
78322;SDS011;67583;50.616;-3.404;2023-03-23T00:39:13;19.77;;;5.22;;
78322;SDS011;67583;50.616;-3.404;2023-03-23T00:41:41;26.75;;;4.38;;
78322;SDS011;67583;50.616;-3.404;2023-03-23T00:44:10;28.75;;;4.70;;
78322;SDS011;67583;50.616;-3.404;2023-03-23T00:46:41;14.85;;;4.40;;
78322;SDS011;67583;50.616;-3.404;2023-03-23T00:49:13;19.77;;;4.30;;
78322;SDS011;67583;50.616;-3.404;2023-03-23T00:51:40;28.27;;;4.97;;
78322;SDS011;67583;50.616;-3.404;2023-03-23T00:54:06;18.20;;;4.60;;
78322;SDS011;67583;50.616;-3.404;2023-03-23T00:56:32;20.73;;;4.10;;
78322;SDS011;67583;50.616;-3.404;2023-03-23T00:58:58;23.40;;;3.70;;
78322;SDS011;67583;50.616;-3.404;2023-03-23T01:01:23;17.35;;;5.03;;
78322;SDS011;67583;50.616;-3.404;2023-03-23T01:03:49;21.83;;;3.72;;
78322;SDS011;67583;50.616;-3.404;2023-03-23T01:08:40;17.40;;;2.90;;
78322;SDS011;67583;50.616;-3.404;2023-03-23T01:11:10;24.30;;;5.28;;
78322;SDS011;67583;50.616;-3.404;2023-03-23T01:13:37;19.75;;;6.53;;
78322;SDS011;67583;50.616;-3.404;2023-03-23T01:16:02;19.88;;;3.80;;
78322;SDS011;67583;50.616;-3.404;2023-03-23T01:18:28;22.30;;;4.88;;
78322;SDS011;67583;50.616;-3.404;2023-03-23T01:20:53;29.02;;;4.20;;
78322;SDS011;67583;50.616;-3.404;2023-03-23T01:23:18;17.67;;;3.30;;
78322;SDS011;67583;50.616;-3.404;2023-03-23T01:25:44;22.17;;;4.70;;
78322;SDS011;67583;50.616;-3.404;2023-03-23T01:28:10;26.35;;;4.00;;
78322;SDS011;67583;50.616;-3.404;2023-03-23T01:30:36;18.10;;;4.18;;
78322;SDS011;67583;50.616;-3.404;2023-03-23T01:33:02;17.13;;;4.45;;
78322;SDS011;67583;50.616;-3.404;2023-03-23T01:37:52;23.43;;;5.33;;
78322;SDS011;67583;50.616;-3.404;2023-03-23T01:40:19;17.35;;;4.00;;
78322;SDS011;67583;50.616;-3.404;2023-03-23T01:42:44;19.85;;;3.60;;
78322;SDS011;67583;50.616;-3.404;2023-03-23T01:47:45;19.48;;;4.20;;
78322;SDS011;67583;50.616;-3.404;2023-03-23T01:50:11;23.02;;;4.47;;
78322;SDS011;67583;50.616;-3.404;2023-03-23T01:52:37;22.35;;;4.15;;
78322;SDS011;67583;50.616;-3.404;2023-03-23T01:55:02;17.73;;;6.18;;
78322;SDS011;67583;50.616;-3.404;2023-03-23T01:57:28;19.92;;;4.50;;
78322;SDS011;67583;50.616;-3.404;2023-03-23T01:59:55;16.90;;;4.05;;
78322;SDS011;67583;50.616;-3.404;2023-03-23T02:02:24;24.17;;;4.72;;
78322;SDS011;67583;50.616;-3.404;2023-03-23T02:04:50;14.40;;;3.53;;
78322;SDS011;67583;50.616;-3.404;2023-03-23T02:07:17;18.42;;;4.40;;
78322;SDS011;67583;50.616;-3.404;2023-03-23T02:09:43;26.73;;;4.40;;
78322;SDS011;67583;50.616;-3.404;2023-03-23T02:12:08;19.02;;;4.18;;
78322;SDS011;67583;50.616;-3.404;2023-03-23T02:14:34;14.85;;;4.00;;
78322;SDS011;67583;50.616;-3.404;2023-03-23T02:17:02;15.55;;;3.88;;
78322;SDS011;67583;50.616;-3.404;2023-03-23T02:36:10;20.45;;;3.35;;
78322;SDS011;67583;50.616;-3.404;2023-03-23T02:39:01;31.85;;;5.47;;
78322;SDS011;67583;50.616;-3.404;2023-03-23T02:41:31;15.60;;;3.92;;
78322;SDS011;67583;50.616;-3.404;2023-03-23T02:44:01;18.42;;;4.30;;
78322;SDS011;67583;50.616;-3.404;2023-03-23T02:46:27;23.83;;;3.85;;
78322;SDS011;67583;50.616;-3.404;2023-03-23T02:48:53;17.40;;;3.58;;
78322;SDS011;67583;50.616;-3.404;2023-03-23T02:51:21;21.48;;;4.28;;
78322;SDS011;67583;50.616;-3.404;2023-03-23T02:53:47;23.08;;;4.78;;
78322;SDS011;67583;50.616;-3.404;2023-03-23T02:56:15;28.50;;;5.88;;
78322;SDS011;67583;50.616;-3.404;2023-03-23T02:58:41;20.63;;;3.97;;
78322;SDS011;67583;50.616;-3.404;2023-03-23T03:03:50;16.65;;;3.50;;
78322;SDS011;67583;50.616;-3.404;2023-03-23T03:11:52;17.85;;;3.55;;
78322;SDS011;67583;50.616;-3.404;2023-03-23T03:14:22;21.48;;;4.50;;
78322;SDS011;67583;50.616;-3.404;2023-03-23T03:17:01;37.20;;;5.55;;
78322;SDS011;67583;50.616;-3.404;2023-03-23T03:19:34;24.13;;;4.47;;
78322;SDS011;67583;50.616;-3.404;2023-03-23T03:22:02;32.53;;;5.45;;
78322;SDS011;67583;50.616;-3.404;2023-03-23T03:24:29;28.95;;;7.25;;
78322;SDS011;67583;50.616;-3.404;2023-03-23T03:26:57;34.17;;;6.57;;
78322;SDS011;67583;50.616;-3.404;2023-03-23T03:29:28;22.30;;;4.60;;
78322;SDS011;67583;50.616;-3.404;2023-03-23T03:31:56;33.35;;;5.32;;
78322;SDS011;67583;50.616;-3.404;2023-03-23T03:34:23;34.40;;;6.63;;
78322;SDS011;67583;50.616;-3.404;2023-03-23T03:36:49;30.58;;;6.07;;
78322;SDS011;67583;50.616;-3.404;2023-03-23T03:39:17;34.95;;;5.55;;
78322;SDS011;67583;50.616;-3.404;2023-03-23T03:41:45;33.97;;;6.47;;
78322;SDS011;67583;50.616;-3.404;2023-03-23T03:44:10;31.20;;;6.72;;
78322;SDS011;67583;50.616;-3.404;2023-03-23T03:46:36;24.92;;;4.22;;
78322;SDS011;67583;50.616;-3.404;2023-03-23T03:49:03;28.58;;;5.13;;
78322;SDS011;67583;50.616;-3.404;2023-03-23T03:51:31;32.80;;;5.30;;
78322;SDS011;67583;50.616;-3.404;2023-03-23T03:53:57;32.28;;;6.28;;
78322;SDS011;67583;50.616;-3.404;2023-03-23T03:56:23;28.42;;;5.55;;
78322;SDS011;67583;50.616;-3.404;2023-03-23T03:58:49;29.88;;;7.07;;
78322;SDS011;67583;50.616;-3.404;2023-03-23T04:01:15;29.40;;;5.13;;
78322;SDS011;67583;50.616;-3.404;2023-03-23T04:03:42;24.70;;;6.57;;
78322;SDS011;67583;50.616;-3.404;2023-03-23T04:06:08;26.00;;;5.60;;
78322;SDS011;67583;50.616;-3.404;2023-03-23T04:08:34;24.10;;;6.35;;
78322;SDS011;67583;50.616;-3.404;2023-03-23T04:11:02;28.00;;;6.80;;
78322;SDS011;67583;50.616;-3.404;2023-03-23T04:13:29;33.45;;;5.93;;
78322;SDS011;67583;50.616;-3.404;2023-03-23T04:15:54;47.88;;;8.70;;
78322;SDS011;67583;50.616;-3.404;2023-03-23T04:18:20;37.33;;;6.85;;
78322;SDS011;67583;50.616;-3.404;2023-03-23T04:20:47;26.42;;;4.60;;
78322;SDS011;67583;50.616;-3.404;2023-03-23T04:23:14;44.35;;;7.97;;
78322;SDS011;67583;50.616;-3.404;2023-03-23T04:25:45;53.03;;;7.85;;
78322;SDS011;67583;50.616;-3.404;2023-03-23T04:28:14;34.95;;;7.07;;
78322;SDS011;67583;50.616;-3.404;2023-03-23T04:30:41;27.40;;;5.05;;
78322;SDS011;67583;50.616;-3.404;2023-03-23T04:33:08;27.45;;;5.32;;
78322;SDS011;67583;50.616;-3.404;2023-03-23T04:35:34;22.33;;;5.28;;
78322;SDS011;67583;50.616;-3.404;2023-03-23T04:37:59;33.13;;;5.60;;
78322;SDS011;67583;50.616;-3.404;2023-03-23T04:40:24;26.58;;;6.07;;
78322;SDS011;67583;50.616;-3.404;2023-03-23T04:42:50;28.88;;;6.95;;
78322;SDS011;67583;50.616;-3.404;2023-03-23T04:45:18;38.38;;;6.75;;
78322;SDS011;67583;50.616;-3.404;2023-03-23T04:47:48;38.20;;;7.22;;
78322;SDS011;67583;50.616;-3.404;2023-03-23T04:50:22;27.95;;;5.35;;
78322;SDS011;67583;50.616;-3.404;2023-03-23T04:52:50;27.05;;;5.82;;
78322;SDS011;67583;50.616;-3.404;2023-03-23T04:55:16;26.30;;;5.82;;
78322;SDS011;67583;50.616;-3.404;2023-03-23T04:57:42;33.00;;;7.07;;
78322;SDS011;67583;50.616;-3.404;2023-03-23T05:00:08;34.63;;;5.10;;
78322;SDS011;67583;50.616;-3.404;2023-03-23T05:02:36;33.67;;;6.35;;
78322;SDS011;67583;50.616;-3.404;2023-03-23T05:05:04;22.13;;;6.22;;
78322;SDS011;67583;50.616;-3.404;2023-03-23T05:07:33;31.13;;;4.75;;
78322;SDS011;67583;50.616;-3.404;2023-03-23T05:09:58;23.80;;;5.53;;
78322;SDS011;67583;50.616;-3.404;2023-03-23T05:12:24;31.48;;;6.63;;
78322;SDS011;67583;50.616;-3.404;2023-03-23T05:14:49;31.15;;;6.45;;
78322;SDS011;67583;50.616;-3.404;2023-03-23T05:17:15;37.70;;;6.32;;
78322;SDS011;67583;50.616;-3.404;2023-03-23T05:19:42;31.17;;;5.45;;
78322;SDS011;67583;50.616;-3.404;2023-03-23T05:22:09;31.55;;;6.25;;
78322;SDS011;67583;50.616;-3.404;2023-03-23T05:24:37;24.67;;;5.15;;
78322;SDS011;67583;50.616;-3.404;2023-03-23T05:27:03;30.73;;;6.38;;
78322;SDS011;67583;50.616;-3.404;2023-03-23T05:29:28;31.08;;;5.70;;
78322;SDS011;67583;50.616;-3.404;2023-03-23T05:31:55;20.45;;;3.80;;
78322;SDS011;67583;50.616;-3.404;2023-03-23T05:34:24;31.05;;;5.35;;
78322;SDS011;67583;50.616;-3.404;2023-03-23T05:36:51;24.17;;;5.72;;
78322;SDS011;67583;50.616;-3.404;2023-03-23T05:39:18;24.00;;;4.15;;
78322;SDS011;67583;50.616;-3.404;2023-03-23T05:41:43;24.83;;;4.32;;
78322;SDS011;67583;50.616;-3.404;2023-03-23T05:44:09;23.80;;;5.80;;
78322;SDS011;67583;50.616;-3.404;2023-03-23T05:46:34;27.95;;;5.05;;
78322;SDS011;67583;50.616;-3.404;2023-03-23T05:49:00;18.20;;;4.50;;
78322;SDS011;67583;50.616;-3.404;2023-03-23T05:51:25;19.30;;;4.40;;
78322;SDS011;67583;50.616;-3.404;2023-03-23T05:56:17;25.80;;;3.47;;
78322;SDS011;67583;50.616;-3.404;2023-03-23T06:01:08;27.05;;;5.05;;
78322;SDS011;67583;50.616;-3.404;2023-03-23T06:03:33;30.85;;;6.35;;
78322;SDS011;67583;50.616;-3.404;2023-03-23T06:06:01;24.25;;;3.35;;
78322;SDS011;67583;50.616;-3.404;2023-03-23T06:08:27;22.83;;;4.47;;
78322;SDS011;67583;50.616;-3.404;2023-03-23T06:10:53;34.35;;;6.68;;
78322;SDS011;67583;50.616;-3.404;2023-03-23T06:13:18;25.88;;;4.05;;
78322;SDS011;67583;50.616;-3.404;2023-03-23T06:15:44;21.85;;;4.70;;
78322;SDS011;67583;50.616;-3.404;2023-03-23T06:18:09;21.90;;;4.43;;
78322;SDS011;67583;50.616;-3.404;2023-03-23T06:20:35;20.50;;;5.82;;
78322;SDS011;67583;50.616;-3.404;2023-03-23T06:23:00;27.35;;;4.45;;
78322;SDS011;67583;50.616;-3.404;2023-03-23T06:25:26;32.75;;;4.43;;
78322;SDS011;67583;50.616;-3.404;2023-03-23T06:27:52;26.23;;;5.05;;
78322;SDS011;67583;50.616;-3.404;2023-03-23T06:30:17;26.90;;;5.32;;
78322;SDS011;67583;50.616;-3.404;2023-03-23T06:32:43;32.00;;;5.00;;
78322;SDS011;67583;50.616;-3.404;2023-03-23T06:35:11;23.30;;;5.45;;
78322;SDS011;67583;50.616;-3.404;2023-03-23T06:37:37;26.10;;;4.40;;
78322;SDS011;67583;50.616;-3.404;2023-03-23T06:40:03;31.15;;;6.35;;
78322;SDS011;67583;50.616;-3.404;2023-03-23T06:42:31;39.67;;;5.05;;
78322;SDS011;67583;50.616;-3.404;2023-03-23T06:44:57;34.60;;;7.10;;
78322;SDS011;67583;50.616;-3.404;2023-03-23T06:47:23;18.77;;;4.70;;
78322;SDS011;67583;50.616;-3.404;2023-03-23T06:49:49;27.58;;;5.30;;
78322;SDS011;67583;50.616;-3.404;2023-03-23T06:52:14;34.95;;;7.05;;
78322;SDS011;67583;50.616;-3.404;2023-03-23T06:54:40;30.55;;;6.18;;
78322;SDS011;67583;50.616;-3.404;2023-03-23T06:57:06;28.77;;;5.35;;
78322;SDS011;67583;50.616;-3.404;2023-03-23T06:59:32;24.83;;;4.47;;
78322;SDS011;67583;50.616;-3.404;2023-03-23T07:01:57;25.25;;;3.97;;
78322;SDS011;67583;50.616;-3.404;2023-03-23T07:04:23;28.38;;;4.78;;
78322;SDS011;67583;50.616;-3.404;2023-03-23T07:06:48;27.13;;;4.68;;
78322;SDS011;67583;50.616;-3.404;2023-03-23T07:09:14;24.88;;;5.60;;
78322;SDS011;67583;50.616;-3.404;2023-03-23T07:11:40;32.42;;;5.40;;
78322;SDS011;67583;50.616;-3.404;2023-03-23T07:14:06;22.88;;;5.28;;
78322;SDS011;67583;50.616;-3.404;2023-03-23T07:16:31;23.20;;;5.18;;
78322;SDS011;67583;50.616;-3.404;2023-03-23T07:18:57;23.38;;;5.13;;
78322;SDS011;67583;50.616;-3.404;2023-03-23T07:21:22;22.10;;;5.57;;
78322;SDS011;67583;50.616;-3.404;2023-03-23T07:23:48;29.40;;;4.80;;
78322;SDS011;67583;50.616;-3.404;2023-03-23T07:26:13;22.98;;;4.75;;
78322;SDS011;67583;50.616;-3.404;2023-03-23T07:28:39;28.10;;;5.25;;
78322;SDS011;67583;50.616;-3.404;2023-03-23T07:31:05;34.08;;;5.88;;
78322;SDS011;67583;50.616;-3.404;2023-03-23T07:33:32;29.00;;;7.25;;
78322;SDS011;67583;50.616;-3.404;2023-03-23T07:35:58;31.77;;;5.97;;
78322;SDS011;67583;50.616;-3.404;2023-03-23T07:38:25;31.50;;;6.88;;
78322;SDS011;67583;50.616;-3.404;2023-03-23T07:40:52;32.42;;;6.55;;
78322;SDS011;67583;50.616;-3.404;2023-03-23T07:43:18;28.48;;;6.03;;
78322;SDS011;67583;50.616;-3.404;2023-03-23T07:45:44;32.15;;;6.35;;
78322;SDS011;67583;50.616;-3.404;2023-03-23T07:48:10;31.73;;;5.55;;
78322;SDS011;67583;50.616;-3.404;2023-03-23T07:50:35;26.52;;;5.70;;
78322;SDS011;67583;50.616;-3.404;2023-03-23T07:53:02;31.60;;;6.00;;
78322;SDS011;67583;50.616;-3.404;2023-03-23T07:55:27;35.50;;;6.57;;
78322;SDS011;67583;50.616;-3.404;2023-03-23T07:57:53;28.08;;;6.00;;
78322;SDS011;67583;50.616;-3.404;2023-03-23T08:00:19;27.35;;;5.95;;
78322;SDS011;67583;50.616;-3.404;2023-03-23T08:02:48;28.17;;;4.60;;
78322;SDS011;67583;50.616;-3.404;2023-03-23T08:05:21;25.45;;;5.28;;
78322;SDS011;67583;50.616;-3.404;2023-03-23T08:07:47;35.92;;;4.47;;
78322;SDS011;67583;50.616;-3.404;2023-03-23T08:10:13;22.45;;;4.45;;
78322;SDS011;67583;50.616;-3.404;2023-03-23T08:12:39;23.98;;;5.70;;
78322;SDS011;67583;50.616;-3.404;2023-03-23T08:15:07;30.58;;;4.70;;
78322;SDS011;67583;50.616;-3.404;2023-03-23T08:17:33;20.80;;;4.80;;
78322;SDS011;67583;50.616;-3.404;2023-03-23T08:19:59;32.40;;;4.82;;
78322;SDS011;67583;50.616;-3.404;2023-03-23T08:22:25;26.77;;;3.92;;
78322;SDS011;67583;50.616;-3.404;2023-03-23T08:24:51;24.90;;;4.57;;
78322;SDS011;67583;50.616;-3.404;2023-03-23T08:27:16;21.27;;;4.50;;
78322;SDS011;67583;50.616;-3.404;2023-03-23T08:29:44;17.15;;;4.15;;
78322;SDS011;67583;50.616;-3.404;2023-03-23T08:32:10;34.10;;;6.43;;
78322;SDS011;67583;50.616;-3.404;2023-03-23T08:34:36;29.88;;;5.32;;
78322;SDS011;67583;50.616;-3.404;2023-03-23T08:37:01;32.30;;;6.15;;
78322;SDS011;67583;50.616;-3.404;2023-03-23T08:39:26;28.23;;;5.07;;
78322;SDS011;67583;50.616;-3.404;2023-03-23T08:41:52;40.33;;;5.90;;
78322;SDS011;67583;50.616;-3.404;2023-03-23T08:44:18;32.22;;;5.63;;
78322;SDS011;67583;50.616;-3.404;2023-03-23T08:46:45;38.05;;;6.60;;
78322;SDS011;67583;50.616;-3.404;2023-03-23T08:49:10;33.60;;;6.35;;
78322;SDS011;67583;50.616;-3.404;2023-03-23T08:51:35;27.63;;;6.72;;
78322;SDS011;67583;50.616;-3.404;2023-03-23T08:54:02;39.53;;;7.78;;
78322;SDS011;67583;50.616;-3.404;2023-03-23T08:56:27;28.65;;;6.65;;
78322;SDS011;67583;50.616;-3.404;2023-03-23T08:58:53;24.75;;;5.95;;
78322;SDS011;67583;50.616;-3.404;2023-03-23T09:01:18;31.23;;;8.43;;
78322;SDS011;67583;50.616;-3.404;2023-03-23T09:03:44;39.80;;;6.80;;
78322;SDS011;67583;50.616;-3.404;2023-03-23T09:06:10;41.05;;;9.02;;
78322;SDS011;67583;50.616;-3.404;2023-03-23T09:08:37;35.15;;;6.38;;
78322;SDS011;67583;50.616;-3.404;2023-03-23T09:11:04;33.40;;;7.13;;
78322;SDS011;67583;50.616;-3.404;2023-03-23T09:13:32;27.55;;;7.55;;
78322;SDS011;67583;50.616;-3.404;2023-03-23T09:15:57;40.58;;;7.78;;
78322;SDS011;67583;50.616;-3.404;2023-03-23T09:18:23;37.17;;;5.90;;
78322;SDS011;67583;50.616;-3.404;2023-03-23T09:20:49;29.33;;;6.63;;
78322;SDS011;67583;50.616;-3.404;2023-03-23T09:23:15;39.20;;;7.25;;
78322;SDS011;67583;50.616;-3.404;2023-03-23T09:25:41;38.33;;;6.97;;
78322;SDS011;67583;50.616;-3.404;2023-03-23T09:28:07;47.58;;;9.63;;
78322;SDS011;67583;50.616;-3.404;2023-03-23T09:30:33;38.55;;;7.40;;
78322;SDS011;67583;50.616;-3.404;2023-03-23T09:33:00;37.72;;;6.15;;
78322;SDS011;67583;50.616;-3.404;2023-03-23T09:35:26;33.92;;;7.45;;
78322;SDS011;67583;50.616;-3.404;2023-03-23T09:37:53;48.30;;;7.35;;
78322;SDS011;67583;50.616;-3.404;2023-03-23T09:40:20;38.58;;;6.93;;
78322;SDS011;67583;50.616;-3.404;2023-03-23T09:48:59;33.38;;;6.38;;
78322;SDS011;67583;50.616;-3.404;2023-03-23T09:51:36;43.58;;;7.35;;
78322;SDS011;67583;50.616;-3.404;2023-03-23T09:56:48;33.85;;;7.32;;
78322;SDS011;67583;50.616;-3.404;2023-03-23T10:05:22;36.65;;;5.93;;
78322;SDS011;67583;50.616;-3.404;2023-03-23T10:08:10;26.80;;;5.90;;
78322;SDS011;67583;50.616;-3.404;2023-03-23T10:16:12;27.70;;;5.45;;
78322;SDS011;67583;50.616;-3.404;2023-03-23T10:18:47;37.53;;;6.60;;
78322;SDS011;67583;50.616;-3.404;2023-03-23T10:21:19;28.65;;;6.75;;
78322;SDS011;67583;50.616;-3.404;2023-03-23T10:29:01;31.13;;;6.88;;
78322;SDS011;67583;50.616;-3.404;2023-03-23T10:31:34;30.05;;;6.60;;
78322;SDS011;67583;50.616;-3.404;2023-03-23T10:34:03;27.05;;;6.72;;
78322;SDS011;67583;50.616;-3.404;2023-03-23T10:37:08;34.47;;;6.30;;
78322;SDS011;67583;50.616;-3.404;2023-03-23T10:39:29;34.03;;;6.80;;
78322;SDS011;67583;50.616;-3.404;2023-03-23T10:41:59;35.65;;;7.28;;
78322;SDS011;67583;50.616;-3.404;2023-03-23T10:44:31;23.77;;;5.57;;
78322;SDS011;67583;50.616;-3.404;2023-03-23T10:46:59;29.15;;;7.45;;
78322;SDS011;67583;50.616;-3.404;2023-03-23T10:53:00;31.13;;;7.70;;
78322;SDS011;67583;50.616;-3.404;2023-03-23T10:55:03;33.30;;;7.43;;
78322;SDS011;67583;50.616;-3.404;2023-03-23T10:57:32;29.17;;;5.40;;
78322;SDS011;67583;50.616;-3.404;2023-03-23T11:00:00;26.23;;;5.60;;
78322;SDS011;67583;50.616;-3.404;2023-03-23T11:02:31;31.95;;;6.30;;
78322;SDS011;67583;50.616;-3.404;2023-03-23T11:05:53;39.92;;;7.07;;
78322;SDS011;67583;50.616;-3.404;2023-03-23T11:08:09;30.77;;;6.88;;
78322;SDS011;67583;50.616;-3.404;2023-03-23T11:10:38;43.22;;;6.72;;
78322;SDS011;67583;50.616;-3.404;2023-03-23T11:13:09;30.40;;;6.28;;
78322;SDS011;67583;50.616;-3.404;2023-03-23T11:15:39;30.73;;;7.45;;
78322;SDS011;67583;50.616;-3.404;2023-03-23T11:18:10;27.50;;;6.20;;
78322;SDS011;67583;50.616;-3.404;2023-03-23T11:20:45;28.13;;;5.32;;
78322;SDS011;67583;50.616;-3.404;2023-03-23T11:23:28;41.55;;;8.05;;
78322;SDS011;67583;50.616;-3.404;2023-03-23T11:31:34;38.47;;;6.07;;
78322;SDS011;67583;50.616;-3.404;2023-03-23T11:34:03;34.10;;;6.68;;
78322;SDS011;67583;50.616;-3.404;2023-03-23T11:36:31;38.95;;;7.05;;
78322;SDS011;67583;50.616;-3.404;2023-03-23T11:38:59;37.70;;;9.23;;
78322;SDS011;67583;50.616;-3.404;2023-03-23T11:41:27;38.92;;;6.65;;
78322;SDS011;67583;50.616;-3.404;2023-03-23T11:43:56;33.90;;;8.07;;
78322;SDS011;67583;50.616;-3.404;2023-03-23T11:46:35;36.45;;;6.05;;
78322;SDS011;67583;50.616;-3.404;2023-03-23T11:49:22;32.03;;;6.30;;
78322;SDS011;67583;50.616;-3.404;2023-03-23T11:51:54;31.30;;;7.05;;
78322;SDS011;67583;50.616;-3.404;2023-03-23T11:56:51;26.70;;;6.20;;
78322;SDS011;67583;50.616;-3.404;2023-03-23T11:59:29;31.38;;;6.57;;
78322;SDS011;67583;50.616;-3.404;2023-03-23T12:07:46;28.48;;;7.40;;
78322;SDS011;67583;50.616;-3.404;2023-03-23T12:15:55;39.55;;;8.27;;
78322;SDS011;67583;50.616;-3.404;2023-03-23T12:30:03;47.50;;;8.50;;
78322;SDS011;67583;50.616;-3.404;2023-03-23T12:41:35;33.60;;;6.82;;
78322;SDS011;67583;50.616;-3.404;2023-03-23T12:44:07;48.78;;;9.52;;
78322;SDS011;67583;50.616;-3.404;2023-03-23T12:49:37;43.58;;;9.15;;
78322;SDS011;67583;50.616;-3.404;2023-03-23T12:52:17;46.83;;;9.07;;
78322;SDS011;67583;50.616;-3.404;2023-03-23T12:54:51;35.47;;;6.32;;
78322;SDS011;67583;50.616;-3.404;2023-03-23T12:57:28;43.55;;;8.82;;
78322;SDS011;67583;50.616;-3.404;2023-03-23T13:02:48;33.85;;;6.70;;
78322;SDS011;67583;50.616;-3.404;2023-03-23T13:08:18;27.77;;;7.75;;
78322;SDS011;67583;50.616;-3.404;2023-03-23T13:10:46;36.45;;;9.25;;
78322;SDS011;67583;50.616;-3.404;2023-03-23T13:13:23;41.03;;;6.63;;
78322;SDS011;67583;50.616;-3.404;2023-03-23T13:18:37;31.80;;;5.78;;
78322;SDS011;67583;50.616;-3.404;2023-03-23T13:21:32;33.30;;;6.40;;
78322;SDS011;67583;50.616;-3.404;2023-03-23T13:24:10;22.13;;;5.18;;
78322;SDS011;67583;50.616;-3.404;2023-03-23T13:26:38;46.17;;;8.13;;
78322;SDS011;67583;50.616;-3.404;2023-03-23T13:29:06;33.97;;;6.97;;
78322;SDS011;67583;50.616;-3.404;2023-03-23T13:31:38;35.83;;;6.80;;
78322;SDS011;67583;50.616;-3.404;2023-03-23T13:36:54;29.33;;;5.90;;
78322;SDS011;67583;50.616;-3.404;2023-03-23T13:39:28;30.38;;;6.20;;
78322;SDS011;67583;50.616;-3.404;2023-03-23T13:44:26;31.00;;;6.35;;
78322;SDS011;67583;50.616;-3.404;2023-03-23T13:47:06;22.08;;;7.22;;
78322;SDS011;67583;50.616;-3.404;2023-03-23T13:49:44;36.63;;;6.88;;
78322;SDS011;67583;50.616;-3.404;2023-03-23T13:52:15;36.28;;;6.05;;
78322;SDS011;67583;50.616;-3.404;2023-03-23T13:54:44;32.78;;;7.82;;
78322;SDS011;67583;50.616;-3.404;2023-03-23T13:57:20;31.80;;;6.50;;
78322;SDS011;67583;50.616;-3.404;2023-03-23T13:59:47;26.35;;;6.10;;
78322;SDS011;67583;50.616;-3.404;2023-03-23T14:02:21;28.25;;;7.38;;
78322;SDS011;67583;50.616;-3.404;2023-03-23T14:04:55;30.02;;;6.55;;
78322;SDS011;67583;50.616;-3.404;2023-03-23T14:07:21;22.92;;;4.88;;
78322;SDS011;67583;50.616;-3.404;2023-03-23T14:09:49;31.65;;;5.35;;
78322;SDS011;67583;50.616;-3.404;2023-03-23T14:12:16;23.30;;;7.22;;
78322;SDS011;67583;50.616;-3.404;2023-03-23T14:14:44;26.08;;;5.82;;
78322;SDS011;67583;50.616;-3.404;2023-03-23T14:19:50;29.33;;;8.35;;
78322;SDS011;67583;50.616;-3.404;2023-03-23T14:22:22;35.13;;;6.60;;
78322;SDS011;67583;50.616;-3.404;2023-03-23T14:24:58;37.03;;;6.20;;
78322;SDS011;67583;50.616;-3.404;2023-03-23T14:27:25;37.97;;;6.47;;
78322;SDS011;67583;50.616;-3.404;2023-03-23T14:30:02;33.08;;;6.72;;
78322;SDS011;67583;50.616;-3.404;2023-03-23T14:32:31;30.27;;;6.28;;
78322;SDS011;67583;50.616;-3.404;2023-03-23T14:34:57;34.58;;;5.60;;
78322;SDS011;67583;50.616;-3.404;2023-03-23T14:37:23;15.68;;;3.33;;
78322;SDS011;67583;50.616;-3.404;2023-03-23T14:39:53;27.80;;;4.88;;
78322;SDS011;67583;50.616;-3.404;2023-03-23T14:42:29;25.23;;;4.25;;
78322;SDS011;67583;50.616;-3.404;2023-03-23T14:44:56;34.78;;;6.05;;
78322;SDS011;67583;50.616;-3.404;2023-03-23T14:47:23;26.15;;;5.20;;
78322;SDS011;67583;50.616;-3.404;2023-03-23T14:49:54;34.88;;;7.07;;
78322;SDS011;67583;50.616;-3.404;2023-03-23T14:52:22;25.38;;;5.93;;
78322;SDS011;67583;50.616;-3.404;2023-03-23T14:54:52;29.15;;;6.03;;
78322;SDS011;67583;50.616;-3.404;2023-03-23T14:59:49;28.45;;;5.85;;
78322;SDS011;67583;50.616;-3.404;2023-03-23T15:02:25;29.50;;;7.95;;
78322;SDS011;67583;50.616;-3.404;2023-03-23T15:05:00;20.38;;;5.68;;
78322;SDS011;67583;50.616;-3.404;2023-03-23T15:07:31;26.45;;;5.30;;
78322;SDS011;67583;50.616;-3.404;2023-03-23T15:09:59;27.55;;;8.10;;
78322;SDS011;67583;50.616;-3.404;2023-03-23T15:12:26;38.22;;;6.68;;
78322;SDS011;67583;50.616;-3.404;2023-03-23T15:14:54;35.60;;;5.18;;
78322;SDS011;67583;50.616;-3.404;2023-03-23T15:17:25;30.48;;;6.82;;
78322;SDS011;67583;50.616;-3.404;2023-03-23T15:19:53;30.15;;;8.00;;
78322;SDS011;67583;50.616;-3.404;2023-03-23T15:24:49;29.33;;;7.18;;
78322;SDS011;67583;50.616;-3.404;2023-03-23T15:27:24;28.98;;;6.13;;
78322;SDS011;67583;50.616;-3.404;2023-03-23T15:29:55;26.73;;;5.05;;
78322;SDS011;67583;50.616;-3.404;2023-03-23T15:34:52;31.33;;;5.65;;
78322;SDS011;67583;50.616;-3.404;2023-03-23T15:37:30;20.70;;;4.90;;
78322;SDS011;67583;50.616;-3.404;2023-03-23T15:39:58;30.83;;;4.82;;
78322;SDS011;67583;50.616;-3.404;2023-03-23T15:42:30;29.88;;;4.95;;
78322;SDS011;67583;50.616;-3.404;2023-03-23T15:53:14;23.25;;;4.78;;
78322;SDS011;67583;50.616;-3.404;2023-03-23T15:55:49;25.40;;;5.95;;
78322;SDS011;67583;50.616;-3.404;2023-03-23T16:00:51;29.38;;;6.65;;
78322;SDS011;67583;50.616;-3.404;2023-03-23T16:03:22;34.40;;;6.93;;
78322;SDS011;67583;50.616;-3.404;2023-03-23T16:06:12;28.52;;;6.00;;
78322;SDS011;67583;50.616;-3.404;2023-03-23T16:08:38;24.45;;;6.35;;
78322;SDS011;67583;50.616;-3.404;2023-03-23T16:11:14;21.23;;;3.63;;
78322;SDS011;67583;50.616;-3.404;2023-03-23T16:13:42;27.08;;;4.93;;
78322;SDS011;67583;50.616;-3.404;2023-03-23T16:16:11;14.88;;;4.30;;
78322;SDS011;67583;50.616;-3.404;2023-03-23T16:18:39;18.50;;;4.93;;
78322;SDS011;67583;50.616;-3.404;2023-03-23T16:21:05;12.70;;;4.18;;
78322;SDS011;67583;50.616;-3.404;2023-03-23T16:23:31;11.15;;;3.00;;
78322;SDS011;67583;50.616;-3.404;2023-03-23T16:25:56;19.50;;;3.83;;
78322;SDS011;67583;50.616;-3.404;2023-03-23T16:28:21;10.48;;;2.22;;
78322;SDS011;67583;50.616;-3.404;2023-03-23T16:30:47;5.65;;;1.92;;
78322;SDS011;67583;50.616;-3.404;2023-03-23T16:33:12;17.13;;;2.08;;
78322;SDS011;67583;50.616;-3.404;2023-03-23T16:35:38;6.75;;;1.77;;
78322;SDS011;67583;50.616;-3.404;2023-03-23T16:38:04;9.38;;;1.90;;
78322;SDS011;67583;50.616;-3.404;2023-03-23T16:40:30;6.43;;;1.63;;
78322;SDS011;67583;50.616;-3.404;2023-03-23T16:42:55;8.00;;;2.10;;
78322;SDS011;67583;50.616;-3.404;2023-03-23T16:45:21;9.18;;;1.90;;
78322;SDS011;67583;50.616;-3.404;2023-03-23T16:47:48;13.45;;;2.30;;
78322;SDS011;67583;50.616;-3.404;2023-03-23T16:50:14;13.98;;;2.72;;
78322;SDS011;67583;50.616;-3.404;2023-03-23T16:52:41;13.95;;;2.05;;